createdAt,value
2023-07-02T00:00:23.654Z,8.00
2023-07-02T00:02:51.319Z,7.05
2023-07-02T00:05:19.496Z,9.77
2023-07-02T00:07:47.104Z,6.80
2023-07-02T00:10:14.845Z,7.88
2023-07-02T00:12:42.542Z,7.03
2023-07-02T00:15:10.348Z,9.05
2023-07-02T00:17:41.223Z,8.80
2023-07-02T00:20:15.713Z,5.78
2023-07-02T00:22:46.952Z,10.10
2023-07-02T00:25:15.144Z,7.05
2023-07-02T00:27:43.657Z,7.13
2023-07-02T00:30:11.512Z,8.85
2023-07-02T00:32:39.357Z,8.70
2023-07-02T00:35:08.848Z,7.20
2023-07-02T00:37:36.916Z,6.60
2023-07-02T00:40:05.135Z,7.95
2023-07-02T00:42:32.862Z,13.80
2023-07-02T00:45:04.159Z,9.30
2023-07-02T00:47:36.042Z,6.57
2023-07-02T00:50:04.150Z,7.80
2023-07-02T00:52:32.074Z,8.27
2023-07-02T00:54:59.535Z,9.80
2023-07-02T00:57:31.067Z,10.88
2023-07-02T01:00:01.810Z,9.68
2023-07-02T01:02:31.804Z,8.10
2023-07-02T01:05:01.700Z,9.05
2023-07-02T01:07:30.681Z,12.48
2023-07-02T01:09:58.424Z,10.48
2023-07-02T01:12:26.047Z,11.95
2023-07-02T01:14:54.148Z,9.85
2023-07-02T01:17:25.194Z,9.88
2023-07-02T01:19:54.991Z,11.07
2023-07-02T01:22:24.650Z,12.48
2023-07-02T01:24:52.735Z,9.52
2023-07-02T01:27:20.363Z,9.80
2023-07-02T01:29:48.812Z,8.48
2023-07-02T01:32:16.284Z,8.43
2023-07-02T01:34:50.376Z,7.75
2023-07-02T01:37:19.234Z,12.43
2023-07-02T01:39:47.315Z,14.10
2023-07-02T01:42:17.292Z,11.63
2023-07-02T01:44:45.409Z,9.77
2023-07-02T01:47:13.154Z,7.50
2023-07-02T01:49:40.828Z,11.20
2023-07-02T01:52:08.367Z,11.18
2023-07-02T01:54:37.932Z,10.77
2023-07-02T01:57:06.125Z,10.93
2023-07-02T01:59:33.733Z,15.02
2023-07-02T02:02:05.908Z,12.90
2023-07-02T02:04:37.806Z,10.70
2023-07-02T02:07:06.411Z,12.85
2023-07-02T02:09:34.878Z,10.35
2023-07-02T02:12:04.883Z,10.38
2023-07-02T02:14:33.915Z,11.40
2023-07-02T02:17:01.919Z,9.02
2023-07-02T02:19:29.713Z,11.60
2023-07-02T02:21:57.364Z,9.43
2023-07-02T02:24:25.105Z,10.48
2023-07-02T02:26:52.575Z,13.20
2023-07-02T02:29:20.095Z,8.30
2023-07-02T02:31:47.600Z,9.27
2023-07-02T02:34:15.548Z,14.32
2023-07-02T02:36:43.520Z,10.98
2023-07-02T02:39:12.289Z,13.27
2023-07-02T02:41:40.065Z,13.35
2023-07-02T02:44:07.575Z,9.50
2023-07-02T02:46:35.593Z,10.38
2023-07-02T02:49:03.261Z,13.00
2023-07-02T02:51:32.756Z,17.55
2023-07-02T02:54:00.452Z,12.60
2023-07-02T02:56:28.273Z,18.05
2023-07-02T03:01:42.347Z,13.85
2023-07-02T03:04:10.122Z,10.73
2023-07-02T03:06:37.525Z,14.07
2023-07-02T03:09:06.791Z,13.50
2023-07-02T03:11:34.436Z,11.60
2023-07-02T03:14:02.276Z,15.93
2023-07-02T03:16:30.014Z,11.77
2023-07-02T03:18:57.726Z,10.45
2023-07-02T03:21:25.338Z,13.18
2023-07-02T03:23:52.872Z,14.70
2023-07-02T03:26:21.688Z,11.70
2023-07-02T03:28:49.209Z,16.20
2023-07-02T03:31:16.864Z,13.23
2023-07-02T03:33:44.703Z,11.77
2023-07-02T03:36:12.192Z,17.27
2023-07-02T03:38:40.167Z,18.52
2023-07-02T03:41:07.683Z,18.65
2023-07-02T03:43:35.441Z,16.85
2023-07-02T03:46:03.990Z,17.15
2023-07-02T03:48:31.675Z,16.25
2023-07-02T03:50:59.315Z,14.32
2023-07-02T03:53:26.859Z,17.55
2023-07-02T03:55:54.733Z,14.20
2023-07-02T03:58:22.459Z,14.57
2023-07-02T04:00:53.197Z,13.02
2023-07-02T04:03:20.897Z,14.73
2023-07-02T04:05:48.419Z,17.70
2023-07-02T04:08:16.823Z,21.08
2023-07-02T04:10:45.318Z,17.15
2023-07-02T04:13:14.313Z,17.55
2023-07-02T04:15:41.719Z,16.73
2023-07-02T04:18:09.614Z,17.35
2023-07-02T04:20:39.769Z,18.15
2023-07-02T04:23:07.914Z,15.30
2023-07-02T04:25:47.458Z,14.75
2023-07-02T04:28:24.404Z,17.20
2023-07-02T04:30:53.303Z,17.60
2023-07-02T04:33:22.158Z,15.18
2023-07-02T04:35:49.916Z,17.80
2023-07-02T04:38:18.767Z,14.43
2023-07-02T04:40:47.208Z,15.10
2023-07-02T04:43:15.452Z,15.35
2023-07-02T04:45:43.280Z,18.80
2023-07-02T04:48:11.886Z,14.85
2023-07-02T04:50:39.693Z,16.40
2023-07-02T04:53:14.363Z,16.40
2023-07-02T04:55:42.843Z,14.27
2023-07-02T04:58:11.236Z,17.13
2023-07-02T05:00:39.354Z,13.57
2023-07-02T05:03:07.125Z,13.93
2023-07-02T05:05:36.189Z,18.38
2023-07-02T05:08:06.213Z,12.65
2023-07-02T05:10:35.372Z,12.15
2023-07-02T05:13:03.255Z,18.40
2023-07-02T05:15:30.821Z,16.25
2023-07-02T05:17:58.447Z,16.00
2023-07-02T05:20:27.876Z,17.42
2023-07-02T05:22:55.518Z,18.95
2023-07-02T05:25:23.229Z,13.52
2023-07-02T05:27:51.018Z,14.38
2023-07-02T05:30:18.766Z,14.02
2023-07-02T05:32:46.378Z,16.80
2023-07-02T05:35:14.372Z,19.40
2023-07-02T05:37:42.007Z,12.70
2023-07-02T05:40:09.950Z,18.77
2023-07-02T05:42:38.936Z,19.30
2023-07-02T05:45:06.973Z,13.68
2023-07-02T05:47:34.784Z,13.98
2023-07-02T05:50:02.479Z,11.90
2023-07-02T05:52:30.337Z,14.23
2023-07-02T05:54:57.974Z,13.20
2023-07-02T05:57:26.066Z,16.98
2023-07-02T05:59:53.675Z,14.32
2023-07-02T06:02:21.491Z,16.77
2023-07-02T06:04:49.246Z,12.40
2023-07-02T06:07:17.231Z,19.10
2023-07-02T06:09:45.104Z,11.68
2023-07-02T06:12:12.838Z,15.10
2023-07-02T06:14:40.351Z,16.42
2023-07-02T06:17:09.486Z,16.90
2023-07-02T06:19:38.402Z,12.77
2023-07-02T06:22:06.065Z,13.43
2023-07-02T06:24:33.587Z,12.35
2023-07-02T06:27:01.238Z,14.27
2023-07-02T06:29:30.340Z,17.88
2023-07-02T06:31:57.936Z,11.52
2023-07-02T06:34:26.693Z,15.80
2023-07-02T06:36:54.516Z,16.30
2023-07-02T06:39:22.278Z,17.40
2023-07-02T06:41:49.805Z,11.80
2023-07-02T06:44:21.694Z,15.68
2023-07-02T06:46:49.709Z,13.43
2023-07-02T06:49:17.561Z,14.52
2023-07-02T06:51:45.296Z,12.13
2023-07-02T06:54:14.545Z,13.38
2023-07-02T06:56:45.360Z,13.57
2023-07-02T06:59:13.217Z,12.05
2023-07-02T07:01:40.862Z,15.23
2023-07-02T07:04:08.503Z,15.27
2023-07-02T07:06:36.383Z,9.52
2023-07-02T07:09:07.144Z,12.02
2023-07-02T07:11:44.056Z,15.57
2023-07-02T07:14:11.983Z,13.60
2023-07-02T07:16:40.159Z,10.95
2023-07-02T07:19:08.745Z,12.55
2023-07-02T07:21:36.579Z,17.90
2023-07-02T07:24:04.414Z,10.00
2023-07-02T07:26:34.769Z,10.85
2023-07-02T07:29:02.598Z,8.63
2023-07-02T07:31:30.399Z,13.23
2023-07-02T07:33:58.027Z,11.95
2023-07-02T07:36:25.527Z,9.13
2023-07-02T07:38:54.196Z,11.25
2023-07-02T07:41:21.709Z,10.20
2023-07-02T07:43:49.293Z,11.88
2023-07-02T07:46:16.910Z,9.30
2023-07-02T07:48:46.239Z,11.20
2023-07-02T07:51:13.826Z,13.18
2023-07-02T07:53:41.458Z,15.45
2023-07-02T07:56:09.089Z,13.02
2023-07-02T07:58:36.698Z,16.60
2023-07-02T08:01:04.486Z,11.10
2023-07-02T08:03:32.372Z,8.68
2023-07-02T08:06:00.210Z,9.07
2023-07-02T08:08:27.789Z,16.27
2023-07-02T08:10:56.601Z,15.27
2023-07-02T08:13:28.558Z,14.57
2023-07-02T08:15:56.272Z,7.82
2023-07-02T08:18:26.637Z,8.23
2023-07-02T08:21:07.473Z,10.27
2023-07-02T08:23:40.427Z,15.18
2023-07-02T08:26:09.306Z,6.90
2023-07-02T08:28:36.836Z,6.82
2023-07-02T08:31:04.735Z,6.65
2023-07-02T08:33:33.220Z,9.35
2023-07-02T08:36:02.252Z,7.35
2023-07-02T08:38:30.197Z,5.72
2023-07-02T08:40:58.320Z,10.73
2023-07-02T08:43:26.947Z,8.00
2023-07-02T08:45:55.116Z,11.57
2023-07-02T08:48:25.107Z,11.40
2023-07-02T08:50:56.802Z,8.98
2023-07-02T08:53:31.012Z,7.78
2023-07-02T08:55:58.907Z,8.85
2023-07-02T08:58:26.648Z,10.00
2023-07-02T09:01:07.979Z,8.60
2023-07-02T09:03:35.892Z,7.75
2023-07-02T09:06:04.440Z,7.85
2023-07-02T09:08:34.938Z,8.98
2023-07-02T09:11:11.127Z,20.38
2023-07-02T09:13:50.097Z,7.20
2023-07-02T09:16:29.967Z,7.10
2023-07-02T09:19:04.655Z,7.38
2023-07-02T09:26:23.654Z,10.77
2023-07-02T09:29:03.079Z,8.32
2023-07-02T09:31:30.854Z,8.05
2023-07-02T09:34:13.585Z,7.85
2023-07-02T09:36:44.366Z,9.13
2023-07-02T09:39:19.224Z,4.78
2023-07-02T09:41:47.320Z,5.20
2023-07-02T09:44:15.012Z,9.23
2023-07-02T09:46:45.415Z,8.77
2023-07-02T09:49:23.833Z,10.75
2023-07-02T09:51:52.529Z,11.75
2023-07-02T09:54:22.069Z,10.32
2023-07-02T09:56:51.650Z,6.63
2023-07-02T09:59:23.255Z,9.77
2023-07-02T10:01:54.540Z,8.70
2023-07-02T10:04:29.441Z,6.22
2023-07-02T10:07:27.854Z,10.52
2023-07-02T10:09:57.046Z,6.72
2023-07-02T10:12:28.703Z,9.52
2023-07-02T10:14:58.436Z,5.35
2023-07-02T10:17:32.594Z,8.00
2023-07-02T10:20:10.034Z,8.32
2023-07-02T10:22:46.237Z,11.25
2023-07-02T10:28:44.900Z,12.27
2023-07-02T10:31:22.651Z,11.63
2023-07-02T10:33:52.294Z,7.47
2023-07-02T10:36:25.639Z,8.30
2023-07-02T10:39:01.978Z,4.70
2023-07-02T10:41:37.502Z,9.45
2023-07-02T10:44:11.230Z,8.25
2023-07-02T10:46:49.735Z,7.90
2023-07-02T10:49:18.721Z,4.32
2023-07-02T10:51:46.655Z,10.35
2023-07-02T10:54:15.432Z,7.90
2023-07-02T10:56:48.608Z,4.32
2023-07-02T11:00:25.485Z,6.47
2023-07-02T11:03:58.463Z,7.05
2023-07-02T11:06:26.814Z,4.93
2023-07-02T11:09:22.744Z,7.07
2023-07-02T11:11:58.794Z,6.55
2023-07-02T11:14:31.283Z,7.65
2023-07-02T11:18:04.820Z,6.07
2023-07-02T11:20:35.387Z,5.32
2023-07-02T11:23:21.146Z,11.65
2023-07-02T11:26:28.381Z,3.47
2023-07-02T11:28:56.698Z,7.68
2023-07-02T11:31:28.909Z,9.18
2023-07-02T11:34:24.293Z,6.38
2023-07-02T11:36:55.434Z,4.57
2023-07-02T11:39:23.617Z,7.65
2023-07-02T11:41:51.755Z,7.70
2023-07-02T11:44:20.998Z,4.57
2023-07-02T11:46:54.175Z,9.73
2023-07-02T11:49:23.477Z,6.55
2023-07-02T11:51:59.364Z,7.07
2023-07-02T11:54:39.662Z,6.22
2023-07-02T11:57:09.113Z,5.93
2023-07-02T11:59:44.198Z,5.35
2023-07-02T12:02:18.829Z,6.55
2023-07-02T12:04:46.963Z,5.63
2023-07-02T12:07:15.584Z,6.32
2023-07-02T12:09:52.898Z,6.50
2023-07-02T12:12:25.761Z,3.70
2023-07-02T12:14:53.614Z,7.50
2023-07-02T12:17:22.988Z,5.70
2023-07-02T12:19:50.811Z,3.47
2023-07-02T12:22:19.645Z,7.22
2023-07-02T12:24:47.834Z,8.35
2023-07-02T12:27:15.565Z,9.05
2023-07-02T12:29:51.166Z,15.45
2023-07-02T12:34:46.217Z,7.65
2023-07-02T12:37:18.685Z,9.70
2023-07-02T12:39:46.599Z,9.23
2023-07-02T12:42:27.201Z,8.13
2023-07-02T12:45:00.780Z,9.23
2023-07-02T12:47:28.625Z,14.60
2023-07-02T12:49:56.611Z,7.28
2023-07-02T12:52:25.174Z,5.25
2023-07-02T12:54:56.854Z,5.32
2023-07-02T12:57:24.922Z,3.58
2023-07-02T12:59:57.188Z,2.60
2023-07-02T13:02:26.080Z,4.18
2023-07-02T13:04:54.885Z,4.60
2023-07-02T13:07:24.606Z,4.38
2023-07-02T13:09:55.703Z,4.50
2023-07-02T13:12:24.050Z,4.63
2023-07-02T13:14:54.253Z,3.35
2023-07-02T13:17:22.232Z,3.17
2023-07-02T13:19:51.793Z,6.10
2023-07-02T13:22:19.292Z,2.97
2023-07-02T13:24:47.020Z,6.13
2023-07-02T13:27:16.269Z,6.22
2023-07-02T13:29:43.940Z,5.07
2023-07-02T13:32:12.574Z,7.88
2023-07-02T13:34:41.694Z,6.10
2023-07-02T13:37:10.474Z,5.05
2023-07-02T13:39:38.414Z,4.40
2023-07-02T13:42:06.878Z,4.20
2023-07-02T13:44:34.866Z,4.93
2023-07-02T13:47:02.626Z,3.28
2023-07-02T13:49:30.455Z,8.95
2023-07-02T13:51:58.192Z,8.43
2023-07-02T13:54:29.671Z,5.03
2023-07-02T13:57:04.663Z,3.60
2023-07-02T13:59:33.741Z,9.30
2023-07-02T14:02:10.359Z,7.45
2023-07-02T14:04:38.798Z,6.50
2023-07-02T14:07:07.139Z,5.05
2023-07-02T14:09:35.621Z,6.20
2023-07-02T14:12:06.235Z,10.88
2023-07-02T14:14:40.834Z,4.07
2023-07-02T14:17:08.469Z,4.05
2023-07-02T14:19:36.355Z,7.15
2023-07-02T14:22:04.249Z,10.50
2023-07-02T14:24:35.408Z,8.00
2023-07-02T14:27:03.562Z,7.97
2023-07-02T14:29:31.501Z,7.60
2023-07-02T14:32:02.832Z,6.53
2023-07-02T14:34:30.892Z,4.75
2023-07-02T14:36:59.661Z,4.10
2023-07-02T14:39:27.854Z,8.00
2023-07-02T14:41:56.180Z,5.97
2023-07-02T14:44:25.023Z,10.52
2023-07-02T14:46:54.395Z,6.65
2023-07-02T14:49:22.746Z,12.68
2023-07-02T14:51:50.312Z,10.90
2023-07-02T14:54:20.980Z,11.73
2023-07-02T14:56:50.972Z,12.43
2023-07-02T14:59:21.613Z,9.38
2023-07-02T15:01:51.016Z,9.65
2023-07-02T15:04:20.077Z,8.57
2023-07-02T15:06:48.047Z,9.02
2023-07-02T15:09:16.093Z,7.00
2023-07-02T15:11:43.730Z,11.73
2023-07-02T15:14:12.280Z,7.63
2023-07-02T15:16:40.843Z,6.47
2023-07-02T15:19:08.947Z,5.32
2023-07-02T15:21:36.931Z,5.20
2023-07-02T15:24:05.267Z,6.28
2023-07-02T15:26:34.964Z,6.68
2023-07-02T15:29:03.243Z,7.68
2023-07-02T15:31:34.466Z,3.05
2023-07-02T15:34:02.174Z,6.25
2023-07-02T15:36:36.884Z,4.20
2023-07-02T15:39:05.768Z,4.95
2023-07-02T15:41:34.080Z,5.63
2023-07-02T15:44:04.587Z,5.93
2023-07-02T15:46:35.921Z,7.03
2023-07-02T15:49:04.989Z,4.63
2023-07-02T15:51:38.493Z,7.60
2023-07-02T15:54:08.120Z,4.90
2023-07-02T15:56:37.104Z,5.82
2023-07-02T15:59:07.542Z,4.43
2023-07-02T16:01:48.105Z,14.00
2023-07-02T16:04:17.517Z,7.63
2023-07-02T16:06:46.628Z,7.97
2023-07-02T16:09:14.332Z,8.30
2023-07-02T16:11:43.380Z,6.32
2023-07-02T16:14:12.857Z,8.25
2023-07-02T16:16:41.700Z,5.88
2023-07-02T16:19:10.782Z,7.57
2023-07-02T16:21:41.136Z,6.00
2023-07-02T16:24:30.055Z,9.45
2023-07-02T16:27:16.046Z,10.07
2023-07-02T16:29:46.877Z,8.13
2023-07-02T16:32:15.037Z,10.57
2023-07-02T16:34:44.975Z,11.25
2023-07-02T16:37:12.749Z,10.27
2023-07-02T16:39:40.849Z,11.18
2023-07-02T16:42:09.030Z,7.68
2023-07-02T16:44:36.844Z,7.60
2023-07-02T16:47:04.590Z,10.52
2023-07-02T16:49:32.494Z,8.60
2023-07-02T16:52:00.278Z,12.57
2023-07-02T16:54:27.750Z,10.77
2023-07-02T16:56:57.910Z,10.35
2023-07-02T16:59:26.653Z,14.40
2023-07-02T17:01:56.601Z,10.85
2023-07-02T17:04:25.789Z,7.25
2023-07-02T17:06:55.774Z,7.05
2023-07-02T17:09:38.355Z,5.45
2023-07-02T17:12:13.747Z,9.25
2023-07-02T17:14:44.982Z,9.45
2023-07-02T17:17:21.272Z,7.82
2023-07-02T17:19:52.617Z,8.98
2023-07-02T17:22:25.038Z,7.07
2023-07-02T17:24:53.468Z,7.63
2023-07-02T17:27:30.198Z,15.65
2023-07-02T17:30:08.041Z,6.72
2023-07-02T17:32:36.261Z,9.43
2023-07-02T17:35:04.177Z,11.35
2023-07-02T17:37:34.823Z,9.70
2023-07-02T17:40:04.385Z,9.25
2023-07-02T17:42:32.136Z,7.57
2023-07-02T17:45:06.661Z,7.10
2023-07-02T17:47:37.026Z,11.48
2023-07-02T17:50:09.202Z,7.82
2023-07-02T17:52:38.000Z,7.88
2023-07-02T17:55:07.468Z,8.35
2023-07-02T17:57:39.532Z,8.82
2023-07-02T18:00:18.953Z,8.43
2023-07-02T18:02:47.069Z,11.60
2023-07-02T18:05:16.607Z,7.35
2023-07-02T18:07:45.032Z,9.23
2023-07-02T18:10:12.873Z,6.28
2023-07-02T18:12:42.214Z,6.85
2023-07-02T18:15:10.255Z,7.43
2023-07-02T18:17:45.299Z,12.02
2023-07-02T18:20:16.325Z,11.02
2023-07-02T18:22:46.401Z,8.32
2023-07-02T18:25:20.498Z,16.80
2023-07-02T18:28:08.744Z,7.75
2023-07-02T18:30:42.630Z,13.38
2023-07-02T18:33:14.280Z,11.30
2023-07-02T18:35:43.829Z,10.25
2023-07-02T18:38:11.574Z,11.48
2023-07-02T18:40:39.809Z,10.63
2023-07-02T18:43:12.565Z,11.32
2023-07-02T18:45:40.567Z,9.65
2023-07-02T18:48:10.173Z,12.60
2023-07-02T18:50:40.458Z,11.68
2023-07-02T18:53:08.346Z,12.30
2023-07-02T18:55:36.769Z,15.20
2023-07-02T18:58:08.170Z,10.73
2023-07-02T19:00:37.398Z,11.73
2023-07-02T19:03:09.050Z,11.75
2023-07-02T19:05:38.576Z,14.00
2023-07-02T19:08:06.192Z,10.90
2023-07-02T19:10:34.737Z,13.30
2023-07-02T19:13:05.408Z,9.15
2023-07-02T19:15:34.487Z,19.63
2023-07-02T19:18:03.584Z,12.32
2023-07-02T19:20:34.356Z,11.05
2023-07-02T19:23:06.103Z,9.85
2023-07-02T19:25:34.490Z,11.40
2023-07-02T19:28:03.458Z,9.18
2023-07-02T19:30:33.081Z,8.15
2023-07-02T19:33:02.213Z,8.82
2023-07-02T19:35:31.384Z,9.38
2023-07-02T19:37:59.762Z,12.77
2023-07-02T19:40:35.492Z,9.23
2023-07-02T19:43:04.536Z,12.85
2023-07-02T19:45:34.131Z,7.28
2023-07-02T19:48:01.855Z,10.35
2023-07-02T19:50:33.457Z,7.30
2023-07-02T19:53:02.163Z,12.95
2023-07-02T19:55:30.036Z,12.30
2023-07-02T19:57:57.845Z,8.55
2023-07-02T20:00:26.520Z,13.13
2023-07-02T20:02:54.541Z,10.40
2023-07-02T20:05:32.817Z,9.02
2023-07-02T20:08:03.319Z,9.77
2023-07-02T20:10:31.882Z,9.77
2023-07-02T20:13:00.922Z,10.77
2023-07-02T20:15:28.440Z,7.38
2023-07-02T20:17:58.480Z,8.43
2023-07-02T20:20:26.616Z,5.88
2023-07-02T20:22:57.364Z,10.15
2023-07-02T20:28:02.173Z,6.20
2023-07-02T20:30:30.301Z,7.38
2023-07-02T20:32:58.437Z,11.63
2023-07-02T20:35:26.176Z,8.73
2023-07-02T20:37:53.772Z,13.38
2023-07-02T20:40:21.572Z,9.02
2023-07-02T20:42:50.582Z,8.57
2023-07-02T20:45:18.739Z,7.85
2023-07-02T20:47:46.386Z,16.85
2023-07-02T20:50:15.155Z,7.50
2023-07-02T20:52:46.044Z,12.25
2023-07-02T20:55:14.201Z,9.63
2023-07-02T20:57:47.797Z,6.38
2023-07-02T21:00:16.002Z,7.78
2023-07-02T21:02:45.420Z,9.57
2023-07-02T21:05:14.728Z,10.85
2023-07-02T21:07:43.027Z,5.22
2023-07-02T21:10:10.790Z,4.28
2023-07-02T21:12:44.491Z,9.60
2023-07-02T21:15:15.234Z,9.07
2023-07-02T21:17:44.469Z,12.60
2023-07-02T21:20:13.606Z,10.25
2023-07-02T21:22:49.982Z,5.90
2023-07-02T21:25:17.977Z,7.40
2023-07-02T21:27:47.833Z,6.38
2023-07-02T21:30:15.702Z,12.68
2023-07-02T21:32:43.892Z,7.75
2023-07-02T21:35:12.468Z,7.68
2023-07-02T21:37:40.286Z,9.25
2023-07-02T21:40:08.756Z,5.78
2023-07-02T21:42:36.486Z,7.65
2023-07-02T21:45:04.382Z,6.07
2023-07-02T21:47:32.788Z,7.60
2023-07-02T21:50:00.292Z,9.77
2023-07-02T21:52:30.126Z,10.05
2023-07-02T21:54:57.852Z,9.13
2023-07-02T21:57:25.445Z,4.82
2023-07-02T21:59:53.286Z,4.15
2023-07-02T22:02:22.550Z,10.13
2023-07-02T22:04:50.317Z,6.43
2023-07-02T22:07:17.852Z,8.90
2023-07-02T22:09:45.822Z,5.68
2023-07-02T22:12:13.733Z,9.82
2023-07-02T22:14:41.360Z,4.97
2023-07-02T22:17:09.411Z,9.43
2023-07-02T22:19:37.582Z,6.95
2023-07-02T22:22:06.011Z,7.97
2023-07-02T22:24:33.666Z,6.10
2023-07-02T22:27:01.160Z,10.82
2023-07-02T22:29:28.742Z,13.63
2023-07-02T22:31:57.418Z,6.22
2023-07-02T22:34:25.105Z,6.75
2023-07-02T22:36:52.862Z,15.55
2023-07-02T22:39:22.733Z,5.65
2023-07-02T22:41:50.588Z,9.77
2023-07-02T22:44:18.335Z,11.82
2023-07-02T22:46:46.091Z,7.40
2023-07-02T22:49:14.006Z,6.72
2023-07-02T22:51:42.288Z,7.10
2023-07-02T22:54:09.880Z,10.55
2023-07-02T22:56:39.161Z,12.45
2023-07-02T22:59:06.726Z,8.68
2023-07-02T23:01:35.254Z,5.47
2023-07-02T23:04:04.084Z,8.25
2023-07-02T23:06:31.963Z,7.13
2023-07-02T23:08:59.827Z,11.48
2023-07-02T23:11:27.471Z,6.38
2023-07-02T23:13:55.121Z,8.38
2023-07-02T23:16:23.082Z,9.30
2023-07-02T23:18:50.780Z,8.82
2023-07-02T23:21:18.742Z,7.07
2023-07-02T23:23:46.431Z,11.82
2023-07-02T23:26:19.117Z,12.13
2023-07-02T23:28:54.402Z,8.23
2023-07-02T23:31:22.704Z,9.27
2023-07-02T23:33:50.462Z,17.38
2023-07-02T23:36:22.702Z,10.07
2023-07-02T23:38:53.768Z,6.55
2023-07-02T23:41:23.629Z,7.70
2023-07-02T23:43:51.508Z,8.52
2023-07-02T23:46:19.382Z,11.02
2023-07-02T23:48:47.067Z,6.13
2023-07-02T23:51:19.034Z,9.90
2023-07-02T23:53:47.458Z,8.85
2023-07-02T23:56:15.245Z,5.38
2023-07-02T23:58:43.216Z,6.53
